<< Go Back

St. Valentine 5k
Date: Sep. 20, 2015
Results by Everal Race Management
Contact for Race Timing

Other distances in this race:
 
St. Valentine 5k Run/Walk

5k Run/Walk

Age Group Results

September 20, 2015

Results Provided by Everal Race Management

Male Overall Winners
Total
Place Name City Bib No Age Overall Time Pace
1 Dave Wolbert Flint MI 206 56 1 19:41 6:21/M
2 Samuel Tapia Redford MI 37 30 2 19:57 6:26/M
3 Nate Bellil 205 32 3 20:04 6:28/M


Female Overall Winners
Total
Place Name City Bib No Age Overall Time Pace
1 Patricia Murray 228 44 4 20:57 6:45/M
2 Adeline Meyers Dearborn Heights M 209 14 9 22:19 7:12/M
3 Erin Heggerty 198 12 10 22:22 7:13/M


Male Senior Shuffle Winners
Total
Place Name City Bib No Age Overall Time Pace
1 Jerry Lenius 98 73 81 39:29 12:44/M
2 Raymond Willey 46 71 105 44:44 14:26/M
3 Edward Obrien Livonia MI 150 79 111 46:33 15:01/M


Female Senior Shuffle Winners
Total
Place Name City Bib No Age Overall Time Pace
1 Karen Jackson 12 65 117 47:38 15:22/M
2 Susan Mote Redford MI 5 66 137 50:59 16:27/M
3 Carol Willey 45 69 166 54:59 17:44/M


No age provided
Total
Place Name City Bib No Age Overall Time Pace
1 Stuart Mair Redford MI 159 0 23 24:55 8:02/M
2 Tom Whalen 78 0 103 43:38 14:05/M
3 Williamson 105 0 220 1:16:25 24:39/M


No age provided
Total
Place Name City Bib No Age Overall Time Pace
1 Maureen Estermyer Redford MI 81 0 141 51:27 16:36/M
2 Penny Gehan Livonia MI 1 0 149 52:26 16:55/M
3 Sylvia Snigier Redford MI 7 0 174 58:00 18:43/M


Male 9 & under
Total
Place Name City Bib No Age Overall Time Pace
1 Adam Hoffman 263 9 87 41:39 13:26/M
2 Easton Danic 125 5 109 46:00 14:50/M
3 Charley Nelson-Pawlik Livonia MI 251 8 115 47:04 15:11/M
4 Eric Hoffman Auburn Hills MI 220 6 122 48:29 15:38/M
5 Evan Kiselewski 178 3 131 50:07 16:10/M
6 Corbin Danic 126 3 146 52:18 16:52/M
7 Dylan O"keefe 189 7 180 59:34 19:13/M
8 Charlie McQueen 163 2 187 59:44 19:16/M
9 Ethan Beltzer 60 3 190 1:01:25 19:49/M
10 Percy Thomas 9 4 195 1:03:06 20:21/M
11 Jonathan Savage Dearborn MI 102 4 219 1:16:24 24:39/M


Female 9 & under
Total
Place Name City Bib No Age Overall Time Pace
1 Gianna D'Angelo 70 7 36 27:30 8:52/M
2 Tess Tilman 210 8 58 32:37 10:31/M
3 Nora Tilman 211 5 63 32:51 10:36/M
4 Grace Surato Mason MI 110 8 86 40:48 13:10/M
5 Alyssa D'Angella 258 9 89 41:54 13:31/M
6 Erin Duclos 114 9 90 42:04 13:34/M
7 Sophia Duclos 112 7 92 42:06 13:35/M
8 Cecilia Krafchak 265 6 98 42:31 13:43/M
9 Joshua Kozma 73 6 104 44:19 14:18/M
10 Andrea Gordy 27 5 107 45:00 14:31/M
11 Isabella Danic 128 7 108 45:56 14:49/M
12 Keegan Parsell Troy MI 118 8 128 49:31 15:58/M
13 Charlie Henry 241 6 129 49:40 16:01/M
14 Megan Kiselewski Livonia MI 179 4 130 50:07 16:10/M
15 Emily Kiselewski 180 8 133 50:10 16:11/M
16 Alexa Calleja Redford MI 282 8 134 50:14 16:12/M
17 Georgie Davis 142 2 161 54:15 17:30/M
18 Charlotte Davis 141 5 168 55:36 17:56/M
19 Ashleigh Beltzer 59 6 191 1:01:26 19:49/M
20 Joslyn Davis 15 8 199 1:04:34 20:50/M
21 Jayha Mount 11 4 210 1:07:21 21:44/M
22 Kalyn Adams 214 8 213 1:07:31 21:47/M


Male 10 to 19
Total
Place Name City Bib No Age Overall Time Pace
1 Steven Cardasis 277 16 6 21:26 6:55/M
2 Tim Cardosis 276 15 7 21:42 7:00/M
3 Jason McComb 24 15 8 21:54 7:04/M
4 Adam Polakowski Dearborn MI 200 12 11 22:25 7:14/M
5 Stephen Hawn Redford MI 268 14 15 23:11 7:29/M
6 Lucas Danic Redford MI 129 11 17 23:45 7:40/M
7 Pano Caridosis 275 15 18 23:47 7:40/M
8 Tim Gordon 225 15 20 24:16 7:50/M
9 Benjamin Hawn Redford MI 267 16 21 24:28 7:54/M
10 Luke Williams Westland MI 202 10 25 24:59 8:04/M
11 Braylon Allison 235 12 30 26:11 8:27/M
12 Ozzy Nelson-Pawlik 254 14 31 26:31 8:33/M
13 Joe McComb Livonia MI 25 12 34 26:52 8:40/M
14 Patrick Fox Jr 243 14 35 27:27 8:51/M
15 Legolas Stewart 236 13 67 34:08 11:01/M
16 Nolan Donner Redford MI 175 14 70 36:28 11:46/M
17 Aidan Donner 177 10 71 36:29 11:46/M
18 Arron McDonald Redford MI 33 15 75 37:11 12:00/M
19 Daniel Hawn Redford MI 269 12 76 37:42 12:10/M
20 Anthony Buscemi 66 13 84 39:57 12:53/M
21 J C Sidaway 221 12 95 42:16 13:38/M
22 Edan Gelletly 245 14 100 42:44 13:47/M
23 Tobey Nelson-Pawlik 252 10 102 43:36 14:04/M
24 Luke Jachman 154 14 112 46:35 15:02/M
25 Matthew Wimmer 279 12 127 49:26 15:57/M
26 Luke Emmerling 85 11 136 50:58 16:26/M
27 Kenny German 133 13 139 51:24 16:35/M
28 Devin Masserare 91 10 158 54:06 17:27/M


Female 10 to 19
Total
Place Name City Bib No Age Overall Time Pace
1 Sophia Gouel 249 15 16 23:13 7:29/M
2 Sam Gouel 247 15 19 24:03 7:45/M
3 Rachel Sexton 119 14 33 26:38 8:35/M
4 Addison Parsell Troy MI 117 10 40 27:58 9:01/M
5 Allison Meyers 201 11 44 28:23 9:09/M
6 Sophia Jachman Redford MI 155 16 49 29:34 9:32/M
7 Ava Erickson Redford MI 190 11 55 32:15 10:24/M
8 Amy Sitarski Redford MI 182 14 68 35:28 11:26/M
9 Hannah Davis Midland MI 139 14 69 35:29 11:27/M
10 Katie Gordon Adrian MI 224 17 72 36:50 11:53/M
11 Fiana Baughman 95 14 74 37:10 11:59/M
12 Anna Damuth 77 12 78 38:36 12:27/M
13 Frankie Nelson-Pawlik 253 12 85 40:01 12:55/M
14 Megan Hoffman 271 12 88 41:40 13:26/M
15 Tori Sidaway 222 11 93 42:07 13:35/M
16 Rhonwyn Martin 274 13 94 42:10 13:36/M
17 Abby Sitarski Redford MI 184 11 96 42:25 13:41/M
18 Sadie Davis 140 11 97 42:28 13:42/M
19 Faith Emmerling 86 13 101 42:45 13:47/M
20 Cadence Surato Mason MI 109 10 113 46:45 15:05/M
21 Hannah Duclos 113 11 114 46:45 15:05/M
22 Ila Roullier Redford MI 232 12 119 48:04 15:30/M
23 Claudia Duggan Redford MI 218 13 121 48:27 15:38/M
24 Rebecca Damuth 75 14 124 48:58 15:48/M
25 Marie Williamson Livonia MI 149 17 152 52:42 17:00/M
26 Cayley Crenshaw Redford MI 30 10 171 56:54 18:21/M
27 Aliya Vaghy 195 11 172 57:53 18:40/M
28 Faith O"keefe 188 11 173 57:55 18:41/M
29 Victoria Buscemi Redford 67 15 176 59:04 19:03/M
30 Brianna Beltzer 58 12 189 1:01:24 19:48/M
31 Joslynn Foote 278 18 206 1:05:24 21:06/M


Male 20 to 29
Total
Place Name City Bib No Age Overall Time Pace
1 Ryan Nadeau 137 23 5 21:06 6:48/M
2 Joe Gordon 223 24 24 24:57 8:03/M
3 Nathon Howell 229 25 38 27:54 9:00/M
4 Matt Currie 234 25 57 32:25 10:27/M
5 Bryan (jr) Davis 136 22 65 33:24 10:46/M
6 Michael Rowan III 227 25 66 33:51 10:55/M


Female 20 to 29
Total
Place Name City Bib No Age Overall Time Pace
1 Shelby Sharples 230 25 39 27:57 9:01/M
2 Janie Bauer Plymouth MI 170 23 56 32:19 10:25/M
3 Shannon McQueen 164 28 177 59:11 19:05/M
4 Aledia Curry 10 26 209 1:05:43 21:12/M


Male 30 to 39
Total
Place Name City Bib No Age Overall Time Pace
1 Michael Cushman Livonia MI 120 33 13 22:46 7:21/M
2 Christopher Parsell Troy MI 116 39 14 23:08 7:28/M
3 Michael Danic 130 38 28 25:14 8:08/M
4 John Doonan 259 38 51 30:55 9:58/M
5 Tim Gelletly 246 37 52 31:02 10:01/M
6 Jeff Duclos 111 39 91 42:05 13:35/M
7 Dan Danic Carleton MI 123 36 148 52:23 16:54/M
8 Patrick Fox Redford MI 244 32 178 59:13 19:06/M
9 Ryan Wagner Milford MI 167 35 200 1:04:46 20:54/M
10 Dexter Gordy 28 35 205 1:05:12 21:02/M


Female 30 to 39
Total
Place Name City Bib No Age Overall Time Pace
1 Lindsay Parsell Troy MI 115 37 22 24:49 8:00/M
2 Katrina Wagner 166 31 32 26:34 8:34/M
3 Amanda Vaghy Redford MI 194 37 41 27:59 9:02/M
4 Katie Tilman 212 38 61 32:50 10:35/M
5 Sarah Krafchak 264 38 99 42:32 13:43/M
6 Amber Gordy 29 33 106 44:58 14:30/M
7 Maggie Nelson 250 39 118 47:46 15:25/M
8 Jenny Kiselewski 181 33 132 50:08 16:10/M
9 Rebekah Danic Carleton MI 124 35 147 52:21 16:53/M
10 Jessica O"keefe 187 34 179 59:33 19:13/M
11 Meghan Ciechanauski 97 30 185 59:41 19:15/M
12 Chrystal Bruckner Redford MI 99 30 186 59:42 19:15/M
13 Marianne Beltzer 57 39 188 1:01:24 19:48/M
14 Jasmine Davis 14 35 202 1:04:50 20:55/M
15 Cata Roullier 233 30 217 1:10:07 22:37/M
16 Laura Savage Dearborn MI 100 36 221 1:17:23 24:58/M


Male 40 to 49
Total
Place Name City Bib No Age Overall Time Pace
1 Joseph Urbiel Detroit MI 143 41 12 22:32 7:16/M
2 Michael Emmerling 87 43 29 25:58 8:23/M
3 Derek D'Angelo 69 41 37 27:32 8:53/M
4 Michael Roullier Redford MI 231 46 42 28:06 9:04/M
5 Father Henry Redford MI 40 40 48 29:33 9:32/M
6 Damon Tilman 213 40 62 32:50 10:35/M
7 Ken German 132 42 126 49:25 15:56/M
8 Bob Calleja Redford 281 42 135 50:21 16:15/M
9 Bryan Davis Fair Haven MI 134 47 169 56:15 18:09/M
10 Ron Damuth Redford MI 74 43 184 59:40 19:15/M
11 Albert Beltzer 56 45 194 1:02:28 20:09/M
12 Mark Wierimal 168 46 196 1:03:14 20:24/M
13 David Kozma 72 49 204 1:05:06 21:00/M
14 Kalon Yancy 215 42 214 1:09:11 22:19/M
15 Alan Nelson-Pawlik 257 40 215 1:09:30 22:25/M


Female 40 to 49
Total
Place Name City Bib No Age Overall Time Pace
1 Jenny Vincent Redford MI 158 45 26 25:04 8:05/M
2 Jennifer Heggerty 197 42 27 25:08 8:06/M
3 Cherly Polakowski 199 46 45 28:25 9:10/M
4 Leah Gawel Novi MI 266 42 53 31:31 10:10/M
5 Karen Williams Westland MI 207 42 59 32:41 10:33/M
6 Beth Bachman Livonia MI 196 42 60 32:46 10:34/M
7 Valerie McDonald 36 46 80 39:03 12:36/M
8 Christa Danic 127 44 110 46:10 14:54/M
9 Amy Hoffman Livonia MI 219 45 123 48:31 15:39/M
10 Andrea Evans Chelsea MI 131 42 138 51:23 16:35/M
11 Sarah Emmerling 88 41 142 51:49 16:43/M
12 Anessa Martin 273 45 143 51:50 16:43/M
13 Loretta Henry 242 42 154 53:06 17:08/M
14 Kim Crenshaw Redford MI 31 42 155 53:07 17:08/M
15 Colleen Masserare 90 49 159 54:08 17:28/M
16 Amy Davis 135 47 170 56:16 18:09/M
17 Rachel Damuth 76 41 183 59:39 19:15/M
18 Sherrill Thomas 8 45 201 1:04:47 20:54/M
19 Jeanette Williamson 104 41 222 1:17:26 24:59/M


Male 50 to 59
Total
Place Name City Bib No Age Overall Time Pace
1 Paul Gluszak Livonia MI 79 54 46 28:49 9:18/M
2 Jim Zittel Waterford MI 270 52 47 29:05 9:23/M
3 Michael Stack Redford MI 239 56 73 36:54 11:54/M
4 Tom Gallagher Redford MI 3 55 77 38:24 12:23/M
5 Bob Zimmerman Redford MI 92 57 83 39:40 12:48/M
6 John Deren 39 50 120 48:16 15:34/M
7 Matt Jachman Redford MI 153 54 145 52:08 16:49/M
8 Phil Masserare 89 50 153 52:58 17:05/M
9 George Baughman Redford MI 248 50 160 54:11 17:29/M
10 Joe Lonienski 280 52 165 54:36 17:37/M
11 Joseph Buscemi Harrison Township 64 56 182 59:38 19:14/M
12 Dennis Bauer Redford MI 169 55 192 1:01:27 19:49/M
13 Leroy McDonald Redford MI 35 50 216 1:09:48 22:31/M
14 Michael Bean 260 54 218 1:10:25 22:43/M
15 Father Socorro Redford MI 13 57 226 1:17:56 25:08/M


Female 50 to 59
Total
Place Name City Bib No Age Overall Time Pace
1 Laurie Sitarski Redford MI 183 50 43 28:18 9:08/M
2 Anne Howell Livonia MI 160 58 50 30:07 9:43/M
3 Colleen Donner 176 50 79 38:51 12:32/M
4 Marianne Martinuzzi 122 53 82 39:35 12:46/M
5 Beth Jachman Redford MI 152 54 144 52:08 16:49/M
6 Cecilia Gallagher Redford MI 2 54 150 52:27 16:55/M
7 Patty Williamson Livonia MI 148 50 167 55:17 17:50/M
8 Tina Buscemi Redford MI 65 53 181 59:37 19:14/M
9 Sue Daly Livonia MI 165 57 193 1:02:26 20:08/M
10 Kathy Therrien 55 57 198 1:04:34 20:50/M
11 Tina Kozma 71 50 203 1:04:51 20:55/M
12 Kathy Reece Livonia MI 49 50 207 1:05:25 21:06/M
13 Nancy Burger Jackson MI 52 58 208 1:05:43 21:12/M


Male 60 & up
Total
Place Name City Bib No Age Overall Time Pace
1 Stanley Urbiel Northville MI 144 60 54 31:55 10:18/M
2 Gary Hanatel 272 60 64 32:54 10:37/M
3 Ray Mote Redford MI 6 67 125 49:02 15:49/M
4 Gary Estermyer Redford MI 80 66 140 51:26 16:35/M
5 Larry Cushman 261 64 151 52:32 16:57/M
6 Roger Weber 106 64 156 53:31 17:16/M
7 Wayne Hanlon Rochester MI 63 67 157 53:32 17:16/M
8 Gregory Urbiel Grosse Pointe Park 145 66 162 54:33 17:36/M
9 Francis Urbiel 146 63 164 54:35 17:36/M
10 Dick Bachman 54 75 175 59:02 19:03/M
11 John Dziurgot Redford MI 48 60 197 1:03:41 20:33/M


Female 60 & up
Total
Place Name City Bib No Age Overall Time Pace
1 Geraldine Cushman 262 63 116 47:25 15:18/M
2 Judith Urbiel Livonia MI 147 63 163 54:34 17:36/M
3 Kathie Pfander Livonia MI 84 70 211 1:07:23 21:44/M
4 Pat Bachman Redford MI 53 74 212 1:07:29 21:46/M
5 Mary Suchener Redford MI 96 80 223 1:17:34 25:01/M
6 Joan Martinuzzi Redford MI 162 81 224 1:17:37 25:02/M
7 Barbara Cuningham 83 66 225 1:17:39 25:03/M